createdAt,value
2017-07-30T00:00:02.456Z,66.50
2017-07-30T00:02:29.890Z,66.49
2017-07-30T00:04:57.314Z,66.38
2017-07-30T00:07:24.786Z,66.43
2017-07-30T00:09:52.214Z,66.53
2017-07-30T00:12:19.676Z,66.63
2017-07-30T00:14:47.127Z,66.50
2017-07-30T00:17:14.576Z,66.70
2017-07-30T00:19:41.987Z,67.12
2017-07-30T00:22:09.423Z,67.36
2017-07-30T00:24:36.853Z,67.46
2017-07-30T00:27:04.270Z,67.64
2017-07-30T00:29:31.694Z,68.04
2017-07-30T00:31:59.275Z,67.77
2017-07-30T00:34:26.684Z,67.76
2017-07-30T00:36:54.132Z,67.70
2017-07-30T00:39:21.559Z,67.60
2017-07-30T00:41:49.022Z,67.86
2017-07-30T00:44:16.495Z,67.92
2017-07-30T00:46:43.947Z,67.97
2017-07-30T00:49:11.354Z,68.13
2017-07-30T00:51:38.828Z,68.28
2017-07-30T00:54:06.312Z,68.42
2017-07-30T00:56:34.725Z,68.72
2017-07-30T00:59:02.146Z,68.64
2017-07-30T01:01:29.562Z,68.58
2017-07-30T01:03:56.991Z,68.71
2017-07-30T01:06:24.440Z,69.02
2017-07-30T01:08:51.844Z,69.04
2017-07-30T01:11:19.280Z,68.89
2017-07-30T01:13:46.745Z,68.73
2017-07-30T01:16:14.146Z,69.04
2017-07-30T01:18:41.595Z,69.60
2017-07-30T01:21:09.004Z,69.70
2017-07-30T01:23:36.419Z,69.61
2017-07-30T01:26:03.868Z,69.56
2017-07-30T01:28:32.012Z,69.45
2017-07-30T01:30:59.463Z,69.39
2017-07-30T01:33:26.889Z,69.20
2017-07-30T01:35:54.631Z,69.41
2017-07-30T01:38:22.067Z,69.24
2017-07-30T01:40:49.508Z,69.65
2017-07-30T01:43:17.145Z,69.88
2017-07-30T01:45:44.574Z,69.90
2017-07-30T01:48:11.979Z,70.40
2017-07-30T01:50:39.402Z,70.76
2017-07-30T01:53:06.814Z,70.53
2017-07-30T01:55:34.240Z,70.22
2017-07-30T01:58:01.688Z,70.23
2017-07-30T02:00:29.211Z,70.64
2017-07-30T02:02:56.639Z,70.74
2017-07-30T02:05:24.058Z,70.61
2017-07-30T02:07:51.499Z,70.46
2017-07-30T02:10:18.906Z,70.56
2017-07-30T02:12:46.319Z,70.81
2017-07-30T02:15:13.847Z,70.81
2017-07-30T02:17:41.431Z,70.88
2017-07-30T02:20:08.926Z,71.07
2017-07-30T02:22:36.310Z,71.00
2017-07-30T02:25:03.836Z,70.82
2017-07-30T02:27:31.251Z,70.71
2017-07-30T02:29:58.664Z,70.75
2017-07-30T02:32:26.095Z,70.66
2017-07-30T02:34:53.567Z,70.78
2017-07-30T02:37:21.116Z,70.74
2017-07-30T02:39:48.541Z,70.90
2017-07-30T02:42:15.960Z,71.07
2017-07-30T02:44:43.403Z,71.21
2017-07-30T02:47:10.859Z,71.48
2017-07-30T02:49:38.302Z,71.56
2017-07-30T02:52:05.735Z,71.32
2017-07-30T02:54:33.278Z,71.37
2017-07-30T02:57:00.683Z,71.16
2017-07-30T02:59:28.114Z,71.25
2017-07-30T03:01:55.538Z,71.33
2017-07-30T03:04:22.942Z,71.46
2017-07-30T03:06:50.342Z,71.64
2017-07-30T03:09:17.775Z,71.65
2017-07-30T03:11:45.186Z,71.77
2017-07-30T03:14:12.632Z,71.61
2017-07-30T03:16:40.055Z,71.42
2017-07-30T03:19:07.509Z,71.11
2017-07-30T03:21:34.948Z,71.02
2017-07-30T03:24:02.371Z,71.06
2017-07-30T03:26:30.114Z,70.94
2017-07-30T03:28:57.528Z,70.98
2017-07-30T03:31:24.962Z,70.90
2017-07-30T03:33:52.999Z,70.93
2017-07-30T03:36:20.424Z,70.73
2017-07-30T03:38:47.891Z,70.72
2017-07-30T03:41:15.296Z,70.92
2017-07-30T03:43:42.703Z,71.13
2017-07-30T03:46:10.144Z,71.42
2017-07-30T03:48:37.552Z,71.58
2017-07-30T03:51:04.991Z,71.85
2017-07-30T03:53:32.535Z,72.00
2017-07-30T03:56:00.123Z,72.04
2017-07-30T03:58:27.872Z,72.17
2017-07-30T04:00:55.287Z,72.07
2017-07-30T04:03:22.707Z,71.93
2017-07-30T04:05:50.188Z,71.77
2017-07-30T04:08:17.631Z,71.67
2017-07-30T04:10:45.024Z,71.98
2017-07-30T04:13:12.458Z,72.18
2017-07-30T04:15:39.876Z,72.02
2017-07-30T04:18:07.297Z,71.84
2017-07-30T04:20:34.828Z,72.16
2017-07-30T04:23:02.221Z,71.85
2017-07-30T04:25:29.671Z,71.85
2017-07-30T04:27:57.110Z,72.37
2017-07-30T04:30:24.611Z,72.43
2017-07-30T04:32:52.060Z,72.34
2017-07-30T04:35:19.580Z,72.39
2017-07-30T04:37:47.016Z,72.44
2017-07-30T04:40:14.450Z,72.20
2017-07-30T04:42:41.862Z,72.10
2017-07-30T04:45:09.311Z,71.95
2017-07-30T04:47:36.715Z,72.06
2017-07-30T04:50:04.239Z,72.06
2017-07-30T04:52:31.691Z,72.04
2017-07-30T04:54:59.136Z,71.99
2017-07-30T04:57:27.031Z,72.26
2017-07-30T04:59:54.496Z,72.43
2017-07-30T05:02:21.931Z,72.51
2017-07-30T05:04:49.393Z,72.25
2017-07-30T05:07:16.795Z,72.27
2017-07-30T05:09:44.227Z,72.41
2017-07-30T05:12:11.654Z,72.59
2017-07-30T05:14:39.142Z,72.67
2017-07-30T05:17:06.553Z,72.51
2017-07-30T05:19:33.993Z,72.54
2017-07-30T05:22:01.407Z,72.67
2017-07-30T05:24:28.814Z,72.88
2017-07-30T05:26:56.261Z,72.75
2017-07-30T05:29:23.676Z,72.38
2017-07-30T05:31:51.104Z,72.20
2017-07-30T05:36:52.259Z,71.67
2017-07-30T05:39:19.693Z,71.89
2017-07-30T05:41:47.112Z,71.65
2017-07-30T05:44:14.552Z,71.80
2017-07-30T05:46:41.976Z,71.84
2017-07-30T05:49:09.388Z,71.50
2017-07-30T05:51:36.916Z,71.89
2017-07-30T05:54:04.440Z,72.33
2017-07-30T05:56:32.031Z,72.85
2017-07-30T05:58:59.432Z,71.61
2017-07-30T06:01:26.848Z,70.91
2017-07-30T06:03:54.274Z,70.75
2017-07-30T06:06:21.682Z,70.20
2017-07-30T06:08:49.202Z,69.36
2017-07-30T06:11:16.635Z,69.52
2017-07-30T06:13:44.058Z,68.03
2017-07-30T06:16:11.511Z,66.31
2017-07-30T06:18:38.916Z,65.45
2017-07-30T06:21:06.355Z,62.36
2017-07-30T06:23:33.782Z,58.83
2017-07-30T06:26:02.192Z,59.45
2017-07-30T06:28:29.628Z,61.05
2017-07-30T06:30:57.036Z,61.45
2017-07-30T06:33:24.474Z,61.76
2017-07-30T06:35:51.877Z,61.69
2017-07-30T06:38:19.332Z,63.11
2017-07-30T06:40:46.769Z,63.13
2017-07-30T06:43:14.170Z,62.19
2017-07-30T06:45:41.636Z,62.42
2017-07-30T06:48:09.115Z,59.57
2017-07-30T06:50:36.504Z,59.55
2017-07-30T06:53:03.946Z,59.02
2017-07-30T06:55:31.420Z,58.76
2017-07-30T06:57:58.865Z,58.63
2017-07-30T07:00:26.286Z,58.81
2017-07-30T07:02:53.728Z,58.58
2017-07-30T07:05:21.151Z,58.83
2017-07-30T07:07:48.546Z,59.01
2017-07-30T07:10:15.990Z,57.87
2017-07-30T07:12:43.403Z,57.67
2017-07-30T07:15:10.859Z,58.02
2017-07-30T07:17:38.319Z,57.48
2017-07-30T07:20:05.715Z,58.05
2017-07-30T07:22:33.168Z,55.91
2017-07-30T07:25:00.603Z,56.32
2017-07-30T07:27:28.471Z,56.27
2017-07-30T07:29:55.880Z,54.29
2017-07-30T07:32:23.309Z,52.95
2017-07-30T07:34:50.866Z,53.25
2017-07-30T07:37:18.294Z,52.80
2017-07-30T07:39:45.726Z,52.89
2017-07-30T07:42:13.182Z,52.97
2017-07-30T07:44:40.763Z,53.82
2017-07-30T07:47:08.270Z,51.62
2017-07-30T07:49:35.713Z,52.18
2017-07-30T07:52:03.179Z,51.62
2017-07-30T07:54:30.636Z,51.57
2017-07-30T07:56:58.036Z,51.12
2017-07-30T07:59:25.446Z,50.78
2017-07-30T08:01:52.895Z,50.84
2017-07-30T08:04:20.360Z,50.25
2017-07-30T08:06:47.795Z,50.56
2017-07-30T08:09:15.243Z,50.38
2017-07-30T08:11:42.683Z,49.45
2017-07-30T08:14:10.122Z,50.10
2017-07-30T08:16:37.520Z,50.11
2017-07-30T08:19:04.965Z,49.43
2017-07-30T08:21:32.409Z,49.60
2017-07-30T08:23:59.819Z,49.46
2017-07-30T08:26:27.262Z,49.56
2017-07-30T08:28:54.747Z,48.74
2017-07-30T08:31:22.222Z,49.86
2017-07-30T08:33:49.655Z,47.84
2017-07-30T08:36:17.088Z,47.75
2017-07-30T08:38:44.491Z,47.49
2017-07-30T08:41:11.931Z,46.74
2017-07-30T08:43:39.363Z,47.32
2017-07-30T08:46:06.790Z,46.73
2017-07-30T08:48:34.207Z,45.46
2017-07-30T08:51:01.652Z,45.51
2017-07-30T08:53:29.087Z,45.70
2017-07-30T08:55:56.498Z,45.51
2017-07-30T08:58:23.963Z,44.74
2017-07-30T09:00:51.391Z,43.91
2017-07-30T09:03:18.832Z,43.69
2017-07-30T09:05:46.357Z,44.75
2017-07-30T09:08:13.755Z,44.36
2017-07-30T09:10:41.223Z,45.85
2017-07-30T09:13:08.616Z,44.74
2017-07-30T09:15:36.095Z,44.29
2017-07-30T09:18:03.519Z,43.08
2017-07-30T09:20:31.040Z,44.33
2017-07-30T09:22:58.441Z,43.85
2017-07-30T09:25:25.861Z,44.79
2017-07-30T09:27:53.276Z,43.71
2017-07-30T09:30:20.700Z,43.73
2017-07-30T09:32:48.117Z,43.77
2017-07-30T09:35:15.557Z,43.85
2017-07-30T09:37:43.004Z,44.02
2017-07-30T09:40:10.439Z,42.61
2017-07-30T09:42:37.879Z,42.50
2017-07-30T09:45:05.360Z,42.85
2017-07-30T09:47:32.799Z,43.55
2017-07-30T09:50:00.252Z,42.49
2017-07-30T09:52:27.663Z,42.00
2017-07-30T09:54:55.120Z,41.94
2017-07-30T09:57:22.555Z,41.04
2017-07-30T09:59:49.987Z,41.93
2017-07-30T10:02:17.392Z,41.94
2017-07-30T10:04:44.885Z,40.71
2017-07-30T10:07:12.375Z,41.48
2017-07-30T10:09:39.865Z,40.79
2017-07-30T10:12:07.307Z,40.24
2017-07-30T10:14:34.743Z,38.62
2017-07-30T10:17:02.171Z,38.35
2017-07-30T10:19:29.612Z,39.39
2017-07-30T10:21:57.103Z,39.75
2017-07-30T10:24:24.774Z,39.44
2017-07-30T10:26:52.240Z,39.75
2017-07-30T10:29:19.681Z,38.72
2017-07-30T10:31:47.151Z,38.85
2017-07-30T10:34:14.615Z,38.57
2017-07-30T10:36:42.152Z,38.73
2017-07-30T10:39:09.557Z,39.04
2017-07-30T10:41:36.996Z,39.29
2017-07-30T10:44:04.520Z,38.73
2017-07-30T10:46:31.952Z,39.09
2017-07-30T10:48:59.391Z,38.68
2017-07-30T10:51:26.843Z,37.74
2017-07-30T10:53:54.322Z,37.96
2017-07-30T10:56:21.756Z,39.56
2017-07-30T10:58:49.163Z,39.06
2017-07-30T11:01:16.656Z,38.61
2017-07-30T11:03:44.088Z,38.78
2017-07-30T11:06:11.496Z,39.87
2017-07-30T11:08:38.935Z,37.15
2017-07-30T11:11:06.362Z,37.61
2017-07-30T11:13:33.755Z,36.76
2017-07-30T11:16:01.172Z,36.61
2017-07-30T11:18:28.604Z,37.36
2017-07-30T11:20:56.035Z,38.15
2017-07-30T11:23:23.475Z,37.20
2017-07-30T11:25:50.914Z,37.44
2017-07-30T11:28:18.332Z,37.99
2017-07-30T11:30:45.816Z,38.02
2017-07-30T11:33:13.272Z,37.12
2017-07-30T11:35:40.941Z,35.79
2017-07-30T11:38:08.405Z,36.65
2017-07-30T11:40:35.869Z,35.69
2017-07-30T11:43:03.364Z,35.97
2017-07-30T11:45:30.841Z,35.67
2017-07-30T11:47:58.252Z,34.93
2017-07-30T11:50:25.692Z,34.57
2017-07-30T11:52:53.129Z,35.82
2017-07-30T11:55:20.689Z,36.52
2017-07-30T11:57:48.188Z,36.44
2017-07-30T12:00:15.666Z,36.07
2017-07-30T12:02:43.094Z,36.15
2017-07-30T12:05:10.667Z,36.58
2017-07-30T12:07:38.102Z,36.83
2017-07-30T12:10:05.572Z,37.32
2017-07-30T12:12:33.018Z,37.61
2017-07-30T12:15:00.434Z,37.71
2017-07-30T12:17:27.863Z,37.52
2017-07-30T12:19:55.910Z,37.08
2017-07-30T12:22:23.311Z,37.51
2017-07-30T12:24:50.718Z,37.15
2017-07-30T12:27:18.283Z,37.04
2017-07-30T12:29:45.740Z,37.72
2017-07-30T12:32:13.251Z,38.81
2017-07-30T12:34:40.680Z,39.13
2017-07-30T12:37:08.187Z,39.65
2017-07-30T12:39:35.630Z,39.70
2017-07-30T12:42:03.063Z,39.28
2017-07-30T12:44:30.580Z,39.36
2017-07-30T12:46:58.118Z,38.34
2017-07-30T12:49:25.540Z,38.34
2017-07-30T12:51:53.053Z,38.28
2017-07-30T12:54:20.447Z,38.23
2017-07-30T12:56:47.889Z,38.05
2017-07-30T12:59:15.313Z,37.95
2017-07-30T13:01:42.745Z,37.99
2017-07-30T13:04:10.175Z,37.94
2017-07-30T13:06:37.577Z,36.58
2017-07-30T13:09:05.015Z,36.15
2017-07-30T13:11:32.438Z,34.85
2017-07-30T13:13:59.924Z,32.80
2017-07-30T13:16:27.368Z,30.75
2017-07-30T13:18:54.779Z,29.26
2017-07-30T13:21:22.228Z,28.46
2017-07-30T13:23:49.748Z,28.58
2017-07-30T13:26:17.264Z,30.76
2017-07-30T13:28:44.671Z,31.20
2017-07-30T13:31:12.128Z,30.64
2017-07-30T13:33:39.595Z,27.63
2017-07-30T13:36:07.027Z,28.61
2017-07-30T13:38:34.451Z,28.11
2017-07-30T13:41:01.886Z,28.58
2017-07-30T13:43:29.303Z,30.98
2017-07-30T13:45:56.735Z,30.51
2017-07-30T13:48:24.144Z,30.86
2017-07-30T13:50:51.542Z,31.81
2017-07-30T13:53:19.051Z,32.03
2017-07-30T13:55:46.472Z,32.14
2017-07-30T13:58:13.997Z,32.42
2017-07-30T14:00:41.445Z,33.23
2017-07-30T14:03:08.881Z,34.09
2017-07-30T14:05:36.326Z,33.22
2017-07-30T14:08:03.792Z,34.64
2017-07-30T14:10:31.239Z,35.13
2017-07-30T14:12:58.724Z,35.28
2017-07-30T14:15:26.164Z,34.90
2017-07-30T14:17:53.601Z,34.74
2017-07-30T14:20:21.047Z,33.29
2017-07-30T14:22:48.478Z,32.75
2017-07-30T14:25:15.915Z,33.88
2017-07-30T14:27:43.319Z,34.02
2017-07-30T14:30:10.791Z,34.17
2017-07-30T14:32:38.194Z,33.96
2017-07-30T14:35:05.623Z,32.83
2017-07-30T14:37:33.046Z,33.72
2017-07-30T14:40:00.459Z,34.58
2017-07-30T14:42:27.932Z,35.54
2017-07-30T14:44:55.457Z,37.29
2017-07-30T14:47:22.895Z,38.43
2017-07-30T14:49:50.343Z,38.05
2017-07-30T14:52:18.312Z,39.67
2017-07-30T14:54:45.712Z,40.25
2017-07-30T14:57:13.211Z,40.13
2017-07-30T14:59:40.639Z,40.11
2017-07-30T15:02:08.093Z,40.42
2017-07-30T15:04:35.523Z,40.51
2017-07-30T15:07:02.926Z,41.02
2017-07-30T15:09:30.362Z,41.35
2017-07-30T15:11:57.775Z,40.87
2017-07-30T15:14:25.187Z,41.21
2017-07-30T15:16:52.625Z,41.47
2017-07-30T15:19:20.038Z,40.63
2017-07-30T15:21:47.479Z,40.28
2017-07-30T15:24:15.005Z,40.09
2017-07-30T15:26:42.407Z,39.95
2017-07-30T15:29:09.844Z,39.57
2017-07-30T15:31:37.258Z,39.60
2017-07-30T15:34:04.692Z,38.57
2017-07-30T15:36:32.103Z,39.47
2017-07-30T15:39:00.115Z,39.40
2017-07-30T15:41:27.546Z,39.09
2017-07-30T15:43:54.963Z,39.04
2017-07-30T15:46:22.397Z,38.55
2017-07-30T15:48:49.825Z,39.22
2017-07-30T15:51:17.238Z,38.21
2017-07-30T15:53:44.645Z,38.43
2017-07-30T15:56:12.085Z,38.82
2017-07-30T15:58:40.403Z,39.36
2017-07-30T16:01:07.811Z,39.48
2017-07-30T16:03:35.241Z,40.37
2017-07-30T16:06:02.659Z,40.91
2017-07-30T16:08:30.059Z,40.39
2017-07-30T16:10:57.496Z,40.85
2017-07-30T16:13:24.974Z,40.62
2017-07-30T16:15:52.426Z,41.56
2017-07-30T16:18:19.862Z,41.39
2017-07-30T16:20:47.357Z,41.97
2017-07-30T16:23:14.777Z,41.83
2017-07-30T16:25:42.210Z,42.56
2017-07-30T16:28:09.631Z,42.51
2017-07-30T16:30:37.057Z,42.66
2017-07-30T16:33:04.499Z,43.07
2017-07-30T16:35:31.949Z,42.57
2017-07-30T16:37:59.380Z,43.52
2017-07-30T16:40:26.782Z,43.14
2017-07-30T16:42:54.187Z,42.89
2017-07-30T16:45:21.702Z,43.43
2017-07-30T16:47:49.102Z,43.48
2017-07-30T16:50:16.517Z,44.12
2017-07-30T16:52:43.947Z,43.53
2017-07-30T16:55:11.388Z,43.33
2017-07-30T16:57:38.811Z,43.66
2017-07-30T17:00:06.248Z,44.78
2017-07-30T17:02:33.647Z,45.47
2017-07-30T17:05:01.092Z,45.80
2017-07-30T17:07:28.577Z,46.93
2017-07-30T17:09:56.062Z,47.34
2017-07-30T17:12:23.498Z,46.84
2017-07-30T17:14:50.907Z,46.31
2017-07-30T17:17:18.934Z,47.06
2017-07-30T17:19:46.338Z,46.63
2017-07-30T17:22:13.743Z,47.18
2017-07-30T17:24:41.171Z,47.34
2017-07-30T17:27:08.600Z,46.77
2017-07-30T17:29:36.018Z,46.77
2017-07-30T17:32:03.472Z,46.85
2017-07-30T17:34:30.898Z,46.94
2017-07-30T17:36:59.075Z,47.01
2017-07-30T17:39:26.470Z,46.97
2017-07-30T17:41:54.018Z,46.71
2017-07-30T17:44:21.443Z,47.06
2017-07-30T17:46:48.851Z,47.14
2017-07-30T17:49:16.273Z,47.31
2017-07-30T17:51:43.721Z,47.19
2017-07-30T17:54:11.147Z,49.03
2017-07-30T17:56:38.550Z,49.61
2017-07-30T17:59:06.545Z,50.38
2017-07-30T18:01:34.016Z,50.82
2017-07-30T18:04:01.728Z,51.62
2017-07-30T18:06:29.159Z,52.35
2017-07-30T18:08:56.595Z,52.30
2017-07-30T18:11:24.033Z,51.76
2017-07-30T18:13:51.495Z,51.47
2017-07-30T18:16:18.903Z,52.01
2017-07-30T18:18:46.306Z,51.99
2017-07-30T18:21:13.755Z,52.30
2017-07-30T18:23:41.235Z,52.49
2017-07-30T18:26:08.662Z,52.97
2017-07-30T18:28:36.083Z,52.84
2017-07-30T18:31:03.493Z,53.02
2017-07-30T18:33:30.939Z,53.25
2017-07-30T18:35:58.338Z,53.28
2017-07-30T18:38:25.801Z,53.83
2017-07-30T18:40:53.240Z,53.98
2017-07-30T18:43:20.704Z,54.38
2017-07-30T18:45:48.132Z,57.00
2017-07-30T18:48:15.557Z,58.03
2017-07-30T18:50:43.064Z,58.83
2017-07-30T18:53:10.502Z,57.22
2017-07-30T18:55:37.954Z,57.28
2017-07-30T18:58:05.728Z,58.85
2017-07-30T19:00:33.147Z,60.97
2017-07-30T19:03:00.616Z,61.90
2017-07-30T19:05:29.006Z,63.26
2017-07-30T19:07:56.423Z,65.78
2017-07-30T19:10:23.877Z,67.64
2017-07-30T19:12:51.296Z,68.00
2017-07-30T19:15:18.753Z,67.87
2017-07-30T19:17:46.199Z,66.96
2017-07-30T19:20:13.649Z,65.55
2017-07-30T19:22:41.109Z,64.70
2017-07-30T19:25:08.552Z,63.70
2017-07-30T19:27:35.992Z,62.92
2017-07-30T19:30:03.508Z,62.40
2017-07-30T19:32:31.026Z,62.00
2017-07-30T19:34:58.525Z,62.03
2017-07-30T19:37:26.060Z,62.17
2017-07-30T19:39:53.469Z,63.80
2017-07-30T19:42:20.912Z,63.91
2017-07-30T19:44:48.369Z,63.77
2017-07-30T19:47:15.924Z,63.31
2017-07-30T19:49:43.414Z,63.49
2017-07-30T19:52:10.889Z,63.63
2017-07-30T19:54:38.389Z,64.19
2017-07-30T19:57:05.799Z,64.87
2017-07-30T19:59:33.227Z,64.93
2017-07-30T20:02:00.655Z,64.98
2017-07-30T20:04:28.100Z,65.33
2017-07-30T20:06:55.519Z,65.43
2017-07-30T20:09:22.971Z,65.29
2017-07-30T20:11:50.395Z,65.03
2017-07-30T20:14:17.856Z,65.01
2017-07-30T20:16:45.305Z,64.99
2017-07-30T20:19:12.715Z,64.95
2017-07-30T20:21:40.156Z,64.87
2017-07-30T20:24:07.813Z,64.74
2017-07-30T20:26:35.274Z,65.01
2017-07-30T20:29:02.699Z,65.19
2017-07-30T20:31:30.125Z,65.66
2017-07-30T20:33:57.571Z,65.80
2017-07-30T20:36:24.983Z,65.69
2017-07-30T20:38:52.423Z,65.91
2017-07-30T20:41:19.863Z,66.39
2017-07-30T20:43:47.279Z,66.31
2017-07-30T20:46:14.728Z,65.39
2017-07-30T20:48:42.159Z,65.82
2017-07-30T20:51:09.573Z,66.12
2017-07-30T20:53:37.023Z,66.65
2017-07-30T20:56:04.464Z,66.40
2017-07-30T20:58:31.876Z,66.07
2017-07-30T21:00:59.272Z,65.60
2017-07-30T21:03:26.773Z,65.08
2017-07-30T21:05:54.171Z,65.15
2017-07-30T21:08:21.583Z,65.96
2017-07-30T21:10:49.028Z,65.51
2017-07-30T21:13:16.455Z,65.43
2017-07-30T21:15:43.860Z,65.18
2017-07-30T21:18:11.307Z,64.95
2017-07-30T21:20:38.745Z,65.04
2017-07-30T21:23:06.188Z,65.17
2017-07-30T21:28:07.456Z,65.49
2017-07-30T21:30:34.875Z,65.73
2017-07-30T21:33:02.282Z,65.84
2017-07-30T21:35:29.720Z,65.83
2017-07-30T21:37:57.123Z,65.88
2017-07-30T21:40:24.536Z,65.98
2017-07-30T21:42:51.964Z,66.02
2017-07-30T21:45:19.383Z,65.76
2017-07-30T21:47:46.837Z,65.57
2017-07-30T21:50:14.243Z,65.40
2017-07-30T21:52:41.675Z,66.09
2017-07-30T21:55:09.119Z,66.73
2017-07-30T21:57:36.575Z,67.58
2017-07-30T22:00:04.051Z,68.05
2017-07-30T22:02:31.508Z,68.62
2017-07-30T22:04:58.937Z,68.70
2017-07-30T22:07:26.375Z,68.50
2017-07-30T22:09:53.774Z,68.73
2017-07-30T22:12:21.221Z,69.94
2017-07-30T22:14:48.687Z,71.55
2017-07-30T22:17:16.081Z,71.90
2017-07-30T22:19:43.648Z,71.44
2017-07-30T22:22:11.052Z,70.93
2017-07-30T22:24:38.495Z,70.96
2017-07-30T22:27:05.949Z,71.79
2017-07-30T22:29:33.350Z,72.54
2017-07-30T22:32:00.782Z,72.56
2017-07-30T22:34:28.267Z,72.12
2017-07-30T22:36:55.725Z,71.60
2017-07-30T22:39:23.774Z,71.02
2017-07-30T22:41:51.226Z,70.81
2017-07-30T22:44:18.652Z,70.43
2017-07-30T22:46:46.072Z,70.42
2017-07-30T22:49:13.602Z,70.74
2017-07-30T22:51:41.010Z,71.09
2017-07-30T22:54:08.431Z,70.74
2017-07-30T22:56:35.863Z,70.97
2017-07-30T22:59:03.263Z,70.99
2017-07-30T23:01:30.791Z,71.39
2017-07-30T23:03:58.238Z,71.08
2017-07-30T23:06:25.635Z,70.33
2017-07-30T23:08:53.034Z,70.31
2017-07-30T23:11:20.474Z,70.16
2017-07-30T23:13:47.920Z,70.08
2017-07-30T23:16:15.431Z,68.11
2017-07-30T23:18:42.954Z,67.59
2017-07-30T23:21:10.387Z,66.58
2017-07-30T23:23:37.872Z,66.84
2017-07-30T23:26:05.315Z,66.39
2017-07-30T23:28:32.717Z,66.66
2017-07-30T23:31:00.133Z,66.55
2017-07-30T23:33:27.619Z,65.78
2017-07-30T23:35:55.107Z,66.20
2017-07-30T23:38:22.547Z,66.20
2017-07-30T23:40:49.955Z,65.30
2017-07-30T23:43:17.362Z,65.16
2017-07-30T23:45:44.794Z,64.94
2017-07-30T23:48:12.192Z,64.95
2017-07-30T23:50:39.691Z,64.46
2017-07-30T23:53:07.177Z,64.71
2017-07-30T23:55:34.622Z,64.42
2017-07-30T23:58:02.037Z,63.92
